This is the latest recevied weather packets stored in our database for station/object K1ABC. If no packets are shown the sender has not sent any weather packets the latest 10 day(s).
| Time | Temp. | Humidity | Pressure | Rain* | Wind** | Luminosity | Snow |
|---|---|---|---|---|---|---|---|
| 1777647630 | 13.89° C | 47% | 1009.2 hPa | 0 mm | - | - | - |
| 1777647059 | 13.33° C | 48% | 1009.2 hPa | 0 mm | - | - | - |
| 1777646614 | 13.89° C | 48% | 1009.1 hPa | 0 mm | - | - | - |
| 1777646180 | 13.89° C | 49% | 1009.1 hPa | 0 mm | - | - | - |
| 1777645847 | 13.89° C | 50% | 1009.1 hPa | 0 mm | - | - | - |
| 1777644662 | 13.33° C | 50% | 1009.1 hPa | 0 mm | - | - | - |
| 1777644090 | 12.78° C | 54% | 1008.9 hPa | 0 mm | - | - | - |
| 1777642653 | 12.22° C | 59% | 1008.9 hPa | 0 mm | - | - | - |
| 1777642327 | 12.22° C | 59% | 1008.8 hPa | 0 mm | - | - | - |
| 1777641508 | 11.67° C | 62% | 1008.9 hPa | 0 mm | - | - | - |
| 1777641056 | 11.11° C | 63% | 1008.8 hPa | 0 mm | - | - | - |
| 1777639872 | 10.56° C | 64% | 1008.8 hPa | 0 mm | - | - | - |
| 1777639672 | 10.56° C | 67% | 1008.8 hPa | 0 mm | - | - | - |
| 1777638964 | 10.56° C | 70% | 1008.8 hPa | 0 mm | - | - | - |
| 1777638760 | 10.56° C | 69% | 1008.7 hPa | 0 mm | - | - | - |
| 1777638438 | 10° C | 69% | 1008.8 hPa | 0 mm | - | - | - |
| 1777638241 | 10° C | 69% | 1008.8 hPa | 0 mm | - | - | - |
| 1777637555 | 9.44° C | 75% | 1008.7 hPa | 0 mm | - | - | - |
| 1777634868 | 7.78° C | 81% | 1008.3 hPa | 0 mm | - | - | - |
| 1777634545 | 7.22° C | 82% | 1008.4 hPa | 0 mm | - | - | - |
| 1777634224 | 7.22° C | 84% | 1008.4 hPa | 0 mm | - | - | - |
| 1777633524 | 6.67° C | 85% | 1008.5 hPa | 0 mm | - | - | - |
| 1777633195 | 6.11° C | 86% | 1008.5 hPa | 0 mm | - | - | - |
| 1777632509 | 6.11° C | 86% | 1008.5 hPa | 0 mm | - | - | - |
| 1777632304 | 6.11° C | 86% | 1008.4 hPa | 0 mm | - | - | - |
* Rain latest hour (hover to see other rain measurements)
** Current wind speed in m/s (hover to see current wind gust speed)